sensor_id;sensor_type;location;lat;lon;timestamp;pressure;altitude;pressure_sealevel;temperature;humidity
3206;BME280;1615;53.602;11.418;2024-03-02T00:01:58;100133.44;;;10.56;100.00
3206;BME280;1615;53.602;11.418;2024-03-02T00:04:23;100159.16;;;10.68;100.00
3206;BME280;1615;53.602;11.418;2024-03-02T00:06:51;99882.09;;;8.92;100.00
3206;BME280;1615;53.602;11.418;2024-03-02T00:09:18;100149.06;;;10.55;100.00
3206;BME280;1615;53.602;11.418;2024-03-02T00:11:43;100146.81;;;10.57;100.00
3206;BME280;1615;53.602;11.418;2024-03-02T00:14:09;100118.94;;;10.42;100.00
3206;BME280;1615;53.602;11.418;2024-03-02T00:16:34;100125.94;;;10.48;100.00
3206;BME280;1615;53.602;11.418;2024-03-02T00:19:05;100091.38;;;10.25;100.00
3206;BME280;1615;53.602;11.418;2024-03-02T00:21:31;100142.75;;;10.55;100.00
3206;BME280;1615;53.602;11.418;2024-03-02T00:23:57;100145.00;;;10.53;100.00
3206;BME280;1615;53.602;11.418;2024-03-02T00:26:22;100117.84;;;10.29;100.00
3206;BME280;1615;53.602;11.418;2024-03-02T00:28:47;100105.19;;;10.20;100.00
3206;BME280;1615;53.602;11.418;2024-03-02T00:31:15;100136.72;;;10.31;100.00
3206;BME280;1615;53.602;11.418;2024-03-02T00:33:47;100099.44;;;10.08;100.00
3206;BME280;1615;53.602;11.418;2024-03-02T00:36:21;100138.63;;;10.30;100.00
3206;BME280;1615;53.602;11.418;2024-03-02T00:38:49;100136.09;;;10.34;100.00
3206;BME280;1615;53.602;11.418;2024-03-02T00:41:22;100149.28;;;10.32;100.00
3206;BME280;1615;53.602;11.418;2024-03-02T00:43:58;100097.78;;;10.07;100.00
3206;BME280;1615;53.602;11.418;2024-03-02T00:46:24;100160.34;;;10.27;100.00
3206;BME280;1615;53.602;11.418;2024-03-02T00:48:53;100135.31;;;10.20;100.00
3206;BME280;1615;53.602;11.418;2024-03-02T00:51:22;100131.06;;;10.14;100.00
3206;BME280;1615;53.602;11.418;2024-03-02T00:53:48;100130.06;;;10.10;100.00
3206;BME280;1615;53.602;11.418;2024-03-02T00:56:14;99863.13;;;8.42;100.00
3206;BME280;1615;53.602;11.418;2024-03-02T00:58:40;100117.66;;;9.99;100.00
3206;BME280;1615;53.602;11.418;2024-03-02T01:01:05;100115.13;;;9.89;100.00
3206;BME280;1615;53.602;11.418;2024-03-02T01:03:32;100061.91;;;9.54;100.00
3206;BME280;1615;53.602;11.418;2024-03-02T01:05:57;99904.53;;;8.17;100.00
3206;BME280;1615;53.602;11.418;2024-03-02T01:08:23;100127.78;;;9.85;100.00
3206;BME280;1615;53.602;11.418;2024-03-02T01:10:49;99930.53;;;8.46;100.00
3206;BME280;1615;53.602;11.418;2024-03-02T01:13:14;100120.09;;;9.73;100.00
3206;BME280;1615;53.602;11.418;2024-03-02T01:15:40;100100.59;;;9.61;100.00
3206;BME280;1615;53.602;11.418;2024-03-02T01:18:05;100117.22;;;9.78;100.00
3206;BME280;1615;53.602;11.418;2024-03-02T01:20:31;100097.88;;;9.61;100.00
3206;BME280;1615;53.602;11.418;2024-03-02T01:22:56;100102.84;;;9.73;100.00
3206;BME280;1615;53.602;11.418;2024-03-02T01:25:21;99905.44;;;8.44;100.00
3206;BME280;1615;53.602;11.418;2024-03-02T01:27:47;100100.81;;;9.65;100.00
3206;BME280;1615;53.602;11.418;2024-03-02T01:30:12;100074.25;;;9.52;100.00
3206;BME280;1615;53.602;11.418;2024-03-02T01:32:38;100077.59;;;9.49;100.00
3206;BME280;1615;53.602;11.418;2024-03-02T01:35:04;100109.34;;;9.63;100.00
3206;BME280;1615;53.602;11.418;2024-03-02T01:37:30;100118.03;;;9.65;100.00
3206;BME280;1615;53.602;11.418;2024-03-02T01:39:55;100118.44;;;9.59;100.00
3206;BME280;1615;53.602;11.418;2024-03-02T01:42:20;100113.69;;;9.51;100.00
3206;BME280;1615;53.602;11.418;2024-03-02T01:44:46;100090.25;;;9.31;100.00
3206;BME280;1615;53.602;11.418;2024-03-02T01:47:11;100090.03;;;9.28;100.00
3206;BME280;1615;53.602;11.418;2024-03-02T01:49:37;100101.56;;;9.25;100.00
3206;BME280;1615;53.602;11.418;2024-03-02T01:52:04;100129.44;;;9.40;100.00
3206;BME280;1615;53.602;11.418;2024-03-02T01:54:29;100129.25;;;9.37;100.00
3206;BME280;1615;53.602;11.418;2024-03-02T01:56:54;100114.44;;;9.24;100.00
3206;BME280;1615;53.602;11.418;2024-03-02T01:59:20;100077.59;;;9.03;100.00
3206;BME280;1615;53.602;11.418;2024-03-02T02:01:45;100128.91;;;9.25;100.00
3206;BME280;1615;53.602;11.418;2024-03-02T02:04:11;100125.78;;;9.18;100.00
3206;BME280;1615;53.602;11.418;2024-03-02T02:06:36;99628.28;;;6.09;100.00
3206;BME280;1615;53.602;11.418;2024-03-02T02:09:02;100118.31;;;9.05;100.00
3206;BME280;1615;53.602;11.418;2024-03-02T02:11:27;100119.72;;;9.02;100.00
3206;BME280;1615;53.602;11.418;2024-03-02T02:13:53;99831.25;;;7.23;100.00
3206;BME280;1615;53.602;11.418;2024-03-02T02:16:20;100098.84;;;8.93;100.00
3206;BME280;1615;53.602;11.418;2024-03-02T02:18:46;99967.38;;;8.12;100.00
3206;BME280;1615;53.602;11.418;2024-03-02T02:21:11;100092.22;;;8.80;100.00
3206;BME280;1615;53.602;11.418;2024-03-02T02:23:37;100110.97;;;8.87;100.00
3206;BME280;1615;53.602;11.418;2024-03-02T02:26:02;99992.34;;;8.24;100.00
3206;BME280;1615;53.602;11.418;2024-03-02T02:28:29;100083.00;;;8.76;100.00
3206;BME280;1615;53.602;11.418;2024-03-02T02:30:54;100080.94;;;8.68;100.00
3206;BME280;1615;53.602;11.418;2024-03-02T02:33:21;100096.53;;;8.68;100.00
3206;BME280;1615;53.602;11.418;2024-03-02T02:35:46;99837.97;;;6.88;100.00
3206;BME280;1615;53.602;11.418;2024-03-02T02:38:12;100085.25;;;8.37;100.00
3206;BME280;1615;53.602;11.418;2024-03-02T02:40:37;100085.09;;;8.47;100.00
3206;BME280;1615;53.602;11.418;2024-03-02T02:43:02;100104.94;;;8.53;100.00
3206;BME280;1615;53.602;11.418;2024-03-02T02:45:28;100072.34;;;8.43;100.00
3206;BME280;1615;53.602;11.418;2024-03-02T02:47:54;100111.28;;;8.67;100.00
3206;BME280;1615;53.602;11.418;2024-03-02T02:50:19;100109.47;;;8.62;100.00
3206;BME280;1615;53.602;11.418;2024-03-02T02:52:45;99838.97;;;6.97;100.00
3206;BME280;1615;53.602;11.418;2024-03-02T02:55:11;100097.28;;;8.55;100.00
3206;BME280;1615;53.602;11.418;2024-03-02T02:57:39;100113.53;;;8.65;100.00
3206;BME280;1615;53.602;11.418;2024-03-02T03:00:09;99807.91;;;6.75;100.00
3206;BME280;1615;53.602;11.418;2024-03-02T03:02:42;99629.41;;;5.33;100.00
3206;BME280;1615;53.602;11.418;2024-03-02T03:05:11;100108.41;;;8.58;100.00
3206;BME280;1615;53.602;11.418;2024-03-02T03:07:37;100086.94;;;8.52;100.00
3206;BME280;1615;53.602;11.418;2024-03-02T03:10:03;100111.91;;;8.64;100.00
3206;BME280;1615;53.602;11.418;2024-03-02T03:12:30;100104.28;;;8.61;100.00
3206;BME280;1615;53.602;11.418;2024-03-02T03:14:56;99864.78;;;6.81;100.00
3206;BME280;1615;53.602;11.418;2024-03-02T03:17:22;100080.47;;;8.48;100.00
3206;BME280;1615;53.602;11.418;2024-03-02T03:19:48;100063.19;;;8.34;100.00
3206;BME280;1615;53.602;11.418;2024-03-02T03:22:13;100108.06;;;8.65;100.00
3206;BME280;1615;53.602;11.418;2024-03-02T03:24:38;100102.66;;;8.60;100.00
3206;BME280;1615;53.602;11.418;2024-03-02T03:27:04;100115.13;;;8.66;100.00
3206;BME280;1615;53.602;11.418;2024-03-02T03:29:29;100099.31;;;8.63;100.00
3206;BME280;1615;53.602;11.418;2024-03-02T03:31:55;100108.56;;;8.67;100.00
3206;BME280;1615;53.602;11.418;2024-03-02T03:34:20;100089.81;;;8.60;100.00
3206;BME280;1615;53.602;11.418;2024-03-02T03:36:45;100103.59;;;8.69;100.00
3206;BME280;1615;53.602;11.418;2024-03-02T03:39:11;100070.75;;;8.55;100.00
3206;BME280;1615;53.602;11.418;2024-03-02T03:41:36;100027.19;;;8.32;100.00
3206;BME280;1615;53.602;11.418;2024-03-02T03:44:01;100070.31;;;8.67;100.00
3206;BME280;1615;53.602;11.418;2024-03-02T03:46:26;100108.75;;;8.89;100.00
3206;BME280;1615;53.602;11.418;2024-03-02T03:48:52;100084.22;;;8.84;100.00
3206;BME280;1615;53.602;11.418;2024-03-02T03:51:17;100107.09;;;9.06;100.00
3206;BME280;1615;53.602;11.418;2024-03-02T03:53:43;100092.19;;;8.99;100.00
3206;BME280;1615;53.602;11.418;2024-03-02T03:56:08;100086.44;;;9.00;100.00
3206;BME280;1615;53.602;11.418;2024-03-02T03:58:33;100111.66;;;9.11;100.00
3206;BME280;1615;53.602;11.418;2024-03-02T04:00:58;100087.22;;;9.01;100.00
3206;BME280;1615;53.602;11.418;2024-03-02T04:03:24;100084.94;;;9.08;100.00
3206;BME280;1615;53.602;11.418;2024-03-02T04:05:49;100102.41;;;9.25;100.00
3206;BME280;1615;53.602;11.418;2024-03-02T04:08:15;100090.03;;;9.28;100.00
3206;BME280;1615;53.602;11.418;2024-03-02T04:10:40;99861.34;;;7.87;100.00
3206;BME280;1615;53.602;11.418;2024-03-02T04:13:07;100093.59;;;9.42;100.00
3206;BME280;1615;53.602;11.418;2024-03-02T04:15:32;100075.25;;;9.29;100.00
3206;BME280;1615;53.602;11.418;2024-03-02T04:17:57;100074.63;;;9.32;100.00
3206;BME280;1615;53.602;11.418;2024-03-02T04:20:23;100072.84;;;9.41;100.00
3206;BME280;1615;53.602;11.418;2024-03-02T04:22:48;99871.78;;;8.17;100.00
3206;BME280;1615;53.602;11.418;2024-03-02T04:25:13;100099.63;;;9.71;100.00
3206;BME280;1615;53.602;11.418;2024-03-02T04:27:39;99628.66;;;6.95;100.00
3206;BME280;1615;53.602;11.418;2024-03-02T04:30:05;100076.81;;;9.75;100.00
3206;BME280;1615;53.602;11.418;2024-03-02T04:32:30;100101.63;;;9.79;100.00
3206;BME280;1615;53.602;11.418;2024-03-02T04:34:56;100068.19;;;9.55;100.00
3206;BME280;1615;53.602;11.418;2024-03-02T04:37:22;100103.34;;;9.75;100.00
3206;BME280;1615;53.602;11.418;2024-03-02T04:39:47;99677.47;;;6.92;100.00
3206;BME280;1615;53.602;11.418;2024-03-02T04:42:12;100087.34;;;9.82;100.00
3206;BME280;1615;53.602;11.418;2024-03-02T04:44:38;100088.34;;;9.86;100.00
3206;BME280;1615;53.602;11.418;2024-03-02T04:47:04;100088.13;;;9.96;100.00
3206;BME280;1615;53.602;11.418;2024-03-02T04:49:29;100083.50;;;9.83;100.00
3206;BME280;1615;53.602;11.418;2024-03-02T04:51:55;100101.03;;;9.95;100.00
3206;BME280;1615;53.602;11.418;2024-03-02T04:54:21;100087.75;;;9.89;100.00
3206;BME280;1615;53.602;11.418;2024-03-02T04:56:47;100107.28;;;9.96;100.00
3206;BME280;1615;53.602;11.418;2024-03-02T04:59:18;100105.09;;;9.98;100.00
3206;BME280;1615;53.602;11.418;2024-03-02T05:01:44;100092.50;;;9.83;100.00
3206;BME280;1615;53.602;11.418;2024-03-02T05:04:10;100077.09;;;9.74;100.00
3206;BME280;1615;53.602;11.418;2024-03-02T05:06:37;100092.81;;;9.82;100.00
3206;BME280;1615;53.602;11.418;2024-03-02T05:09:03;100100.41;;;9.85;100.00
3206;BME280;1615;53.602;11.418;2024-03-02T05:11:29;100079.84;;;9.74;100.00
3206;BME280;1615;53.602;11.418;2024-03-02T05:14:14;100094.63;;;9.73;100.00
3206;BME280;1615;53.602;11.418;2024-03-02T05:16:39;100101.44;;;9.75;100.00
3206;BME280;1615;53.602;11.418;2024-03-02T05:19:07;100101.03;;;9.82;100.00
3206;BME280;1615;53.602;11.418;2024-03-02T05:21:33;100107.72;;;9.76;100.00
3206;BME280;1615;53.602;11.418;2024-03-02T05:23:59;100114.63;;;9.87;100.00
3206;BME280;1615;53.602;11.418;2024-03-02T05:26:24;100074.88;;;9.76;100.00
3206;BME280;1615;53.602;11.418;2024-03-02T05:28:49;100097.19;;;9.83;100.00
3206;BME280;1615;53.602;11.418;2024-03-02T05:31:15;99589.75;;;6.76;100.00
3206;BME280;1615;53.602;11.418;2024-03-02T05:33:42;100124.69;;;10.05;100.00
3206;BME280;1615;53.602;11.418;2024-03-02T05:36:07;99893.53;;;8.67;100.00
3206;BME280;1615;53.602;11.418;2024-03-02T05:38:35;100012.44;;;9.37;100.00
3206;BME280;1615;53.602;11.418;2024-03-02T05:41:01;100111.16;;;9.95;100.00
3206;BME280;1615;53.602;11.418;2024-03-02T05:43:26;100122.31;;;9.85;100.00
3206;BME280;1615;53.602;11.418;2024-03-02T05:45:52;100113.78;;;9.73;100.00
3206;BME280;1615;53.602;11.418;2024-03-02T05:48:17;100100.41;;;9.58;100.00
3206;BME280;1615;53.602;11.418;2024-03-02T05:50:42;99578.56;;;6.27;100.00
3206;BME280;1615;53.602;11.418;2024-03-02T05:53:07;100115.78;;;9.54;100.00
3206;BME280;1615;53.602;11.418;2024-03-02T05:55:33;100112.53;;;9.38;100.00
3206;BME280;1615;53.602;11.418;2024-03-02T05:57:58;99879.78;;;7.95;100.00
3206;BME280;1615;53.602;11.418;2024-03-02T06:00:23;99898.03;;;8.13;100.00
3206;BME280;1615;53.602;11.418;2024-03-02T06:02:49;100118.13;;;9.47;100.00
3206;BME280;1615;53.602;11.418;2024-03-02T06:05:14;99981.47;;;7.82;100.00
3206;BME280;1615;53.602;11.418;2024-03-02T06:07:40;100111.31;;;9.31;100.00
3206;BME280;1615;53.602;11.418;2024-03-02T06:10:06;100007.63;;;8.57;100.00
3206;BME280;1615;53.602;11.418;2024-03-02T06:12:32;100135.00;;;9.35;100.00
3206;BME280;1615;53.602;11.418;2024-03-02T06:14:58;100112.50;;;9.25;100.00
3206;BME280;1615;53.602;11.418;2024-03-02T06:17:23;100122.41;;;9.21;100.00
3206;BME280;1615;53.602;11.418;2024-03-02T06:19:48;100048.50;;;8.80;100.00
3206;BME280;1615;53.602;11.418;2024-03-02T06:22:13;100086.31;;;8.92;100.00
3206;BME280;1615;53.602;11.418;2024-03-02T06:24:39;100127.75;;;9.12;100.00
3206;BME280;1615;53.602;11.418;2024-03-02T06:27:04;100132.44;;;9.12;100.00
3206;BME280;1615;53.602;11.418;2024-03-02T06:29:32;100126.97;;;9.12;100.00
3206;BME280;1615;53.602;11.418;2024-03-02T06:31:58;100199.44;;;9.28;100.00
3206;BME280;1615;53.602;11.418;2024-03-02T06:34:23;100129.91;;;9.15;100.00
3206;BME280;1615;53.602;11.418;2024-03-02T06:36:48;100127.47;;;9.14;100.00
3206;BME280;1615;53.602;11.418;2024-03-02T06:39:14;100155.06;;;9.31;100.00
3206;BME280;1615;53.602;11.418;2024-03-02T06:41:39;100150.63;;;9.35;100.00
3206;BME280;1615;53.602;11.418;2024-03-02T06:44:04;99877.50;;;7.83;100.00
3206;BME280;1615;53.602;11.418;2024-03-02T06:46:31;100134.00;;;9.31;100.00
3206;BME280;1615;53.602;11.418;2024-03-02T06:48:57;99885.97;;;7.82;100.00
3206;BME280;1615;53.602;11.418;2024-03-02T06:51:22;100155.88;;;9.63;100.00
3206;BME280;1615;53.602;11.418;2024-03-02T06:53:48;100147.00;;;9.53;100.00
3206;BME280;1615;53.602;11.418;2024-03-02T06:56:13;100153.91;;;9.64;100.00
3206;BME280;1615;53.602;11.418;2024-03-02T06:58:39;100128.38;;;9.55;100.00
3206;BME280;1615;53.602;11.418;2024-03-02T07:01:04;100203.63;;;9.71;100.00
3206;BME280;1615;53.602;11.418;2024-03-02T07:03:30;100131.44;;;9.67;100.00
3206;BME280;1615;53.602;11.418;2024-03-02T07:05:55;100104.25;;;9.43;100.00
3206;BME280;1615;53.602;11.418;2024-03-02T07:08:20;100123.91;;;9.59;100.00
3206;BME280;1615;53.602;11.418;2024-03-02T07:10:46;100135.28;;;9.66;100.00
3206;BME280;1615;53.602;11.418;2024-03-02T07:13:12;100125.97;;;9.67;100.00
3206;BME280;1615;53.602;11.418;2024-03-02T07:15:38;100129.19;;;9.55;100.00
3206;BME280;1615;53.602;11.418;2024-03-02T07:18:32;100149.47;;;9.68;100.00
3206;BME280;1615;53.602;11.418;2024-03-02T07:20:59;100057.78;;;9.11;100.00
3206;BME280;1615;53.602;11.418;2024-03-02T07:23:26;100114.38;;;9.56;100.00
3206;BME280;1615;53.602;11.418;2024-03-02T07:25:53;100148.16;;;9.92;100.00
3206;BME280;1615;53.602;11.418;2024-03-02T07:28:24;100148.91;;;9.98;100.00
3206;BME280;1615;53.602;11.418;2024-03-02T07:30:59;100176.41;;;10.20;100.00
3206;BME280;1615;53.602;11.418;2024-03-02T07:33:25;100168.69;;;10.22;100.00
3206;BME280;1615;53.602;11.418;2024-03-02T07:35:50;100152.25;;;10.22;100.00
3206;BME280;1615;53.602;11.418;2024-03-02T07:38:16;100156.50;;;10.28;100.00
3206;BME280;1615;53.602;11.418;2024-03-02T07:40:42;100109.16;;;10.14;100.00
3206;BME280;1615;53.602;11.418;2024-03-02T07:43:07;100131.63;;;10.38;100.00
3206;BME280;1615;53.602;11.418;2024-03-02T07:45:32;100170.75;;;10.65;100.00
3206;BME280;1615;53.602;11.418;2024-03-02T07:47:58;99863.81;;;8.79;100.00
3206;BME280;1615;53.602;11.418;2024-03-02T07:50:23;100155.47;;;10.51;100.00
3206;BME280;1615;53.602;11.418;2024-03-02T07:52:48;100167.41;;;10.55;100.00
3206;BME280;1615;53.602;11.418;2024-03-02T07:55:14;100172.19;;;10.63;100.00
3206;BME280;1615;53.602;11.418;2024-03-02T07:57:40;100170.00;;;10.73;100.00
3206;BME280;1615;53.602;11.418;2024-03-02T08:00:06;100170.19;;;10.77;100.00
3206;BME280;1615;53.602;11.418;2024-03-02T08:02:31;100178.44;;;10.77;100.00
3206;BME280;1615;53.602;11.418;2024-03-02T08:04:57;100156.63;;;10.72;100.00
3206;BME280;1615;53.602;11.418;2024-03-02T08:07:22;100147.28;;;10.73;100.00
3206;BME280;1615;53.602;11.418;2024-03-02T08:09:47;100160.34;;;10.76;100.00
3206;BME280;1615;53.602;11.418;2024-03-02T08:12:13;100139.66;;;10.70;100.00
3206;BME280;1615;53.602;11.418;2024-03-02T08:14:38;100122.31;;;10.61;100.00
3206;BME280;1615;53.602;11.418;2024-03-02T08:17:04;99903.28;;;9.14;100.00
3206;BME280;1615;53.602;11.418;2024-03-02T08:19:34;99951.47;;;9.37;100.00
3206;BME280;1615;53.602;11.418;2024-03-02T08:22:00;100116.34;;;10.59;100.00
3206;BME280;1615;53.602;11.418;2024-03-02T08:24:25;99873.31;;;8.95;100.00
3206;BME280;1615;53.602;11.418;2024-03-02T08:26:50;100163.63;;;10.78;100.00
3206;BME280;1615;53.602;11.418;2024-03-02T08:29:16;100117.00;;;10.56;100.00
3206;BME280;1615;53.602;11.418;2024-03-02T08:31:44;100175.22;;;10.97;100.00
3206;BME280;1615;53.602;11.418;2024-03-02T08:34:10;100185.34;;;11.10;100.00
3206;BME280;1615;53.602;11.418;2024-03-02T08:36:35;100129.38;;;10.89;100.00
3206;BME280;1615;53.602;11.418;2024-03-02T08:39:01;100179.47;;;11.25;100.00
3206;BME280;1615;53.602;11.418;2024-03-02T08:41:29;100152.38;;;11.23;100.00
3206;BME280;1615;53.602;11.418;2024-03-02T08:43:54;99839.91;;;9.12;100.00
3206;BME280;1615;53.602;11.418;2024-03-02T08:46:20;100158.91;;;11.36;100.00
3206;BME280;1615;53.602;11.418;2024-03-02T08:48:45;100168.69;;;11.50;100.00
3206;BME280;1615;53.602;11.418;2024-03-02T08:51:13;100191.09;;;11.66;100.00
3206;BME280;1615;53.602;11.418;2024-03-02T08:53:39;100158.50;;;11.51;100.00
3206;BME280;1615;53.602;11.418;2024-03-02T08:56:04;100129.56;;;11.45;100.00
3206;BME280;1615;53.602;11.418;2024-03-02T08:58:30;100094.94;;;11.27;100.00
3206;BME280;1615;53.602;11.418;2024-03-02T09:00:56;100182.59;;;11.76;100.00
3206;BME280;1615;53.602;11.418;2024-03-02T09:03:22;100161.06;;;11.69;100.00
3206;BME280;1615;53.602;11.418;2024-03-02T09:05:47;100238.38;;;11.85;100.00
3206;BME280;1615;53.602;11.418;2024-03-02T09:08:13;100128.66;;;11.80;100.00
3206;BME280;1615;53.602;11.418;2024-03-02T09:10:38;100138.59;;;12.06;100.00
3206;BME280;1615;53.602;11.418;2024-03-02T09:13:04;100184.00;;;12.43;100.00
3206;BME280;1615;53.602;11.418;2024-03-02T09:15:30;100183.50;;;12.49;100.00
3206;BME280;1615;53.602;11.418;2024-03-02T09:17:55;99912.94;;;11.01;100.00
3206;BME280;1615;53.602;11.418;2024-03-02T09:20:21;100191.16;;;12.86;100.00
3206;BME280;1615;53.602;11.418;2024-03-02T09:22:46;100190.91;;;13.05;100.00
3206;BME280;1615;53.602;11.418;2024-03-02T09:25:14;100191.88;;;13.09;100.00
3206;BME280;1615;53.602;11.418;2024-03-02T09:27:39;100155.75;;;12.93;100.00
3206;BME280;1615;53.602;11.418;2024-03-02T09:30:08;100160.00;;;13.08;100.00
3206;BME280;1615;53.602;11.418;2024-03-02T09:32:34;99873.31;;;11.15;100.00
3206;BME280;1615;53.602;11.418;2024-03-02T09:34:59;100178.59;;;13.11;100.00
3206;BME280;1615;53.602;11.418;2024-03-02T09:37:25;100124.53;;;12.81;100.00
3206;BME280;1615;53.602;11.418;2024-03-02T09:39:51;100195.59;;;13.38;100.00
3206;BME280;1615;53.602;11.418;2024-03-02T09:42:17;100187.78;;;13.49;100.00
3206;BME280;1615;53.602;11.418;2024-03-02T09:44:43;100219.19;;;13.65;100.00
3206;BME280;1615;53.602;11.418;2024-03-02T09:47:08;100202.16;;;13.71;100.00
3206;BME280;1615;53.602;11.418;2024-03-02T09:49:34;99945.50;;;12.23;100.00
3206;BME280;1615;53.602;11.418;2024-03-02T09:52:00;100234.50;;;14.00;100.00
3206;BME280;1615;53.602;11.418;2024-03-02T09:54:26;100000.94;;;12.59;100.00
3206;BME280;1615;53.602;11.418;2024-03-02T09:56:51;100111.19;;;13.42;100.00
3206;BME280;1615;53.602;11.418;2024-03-02T09:59:17;100178.94;;;13.98;100.00
3206;BME280;1615;53.602;11.418;2024-03-02T10:02:00;100208.28;;;13.94;100.00
3206;BME280;1615;53.602;11.418;2024-03-02T10:04:27;100226.06;;;14.05;100.00
3206;BME280;1615;53.602;11.418;2024-03-02T10:07:13;100227.59;;;13.85;100.00
3206;BME280;1615;53.602;11.418;2024-03-02T10:09:40;100198.25;;;13.81;100.00
3206;BME280;1615;53.602;11.418;2024-03-02T10:12:07;100190.34;;;13.79;100.00
3206;BME280;1615;53.602;11.418;2024-03-02T10:14:34;99983.63;;;12.50;100.00
3206;BME280;1615;53.602;11.418;2024-03-02T10:17:08;100228.34;;;14.03;100.00
3206;BME280;1615;53.602;11.418;2024-03-02T10:19:34;100219.91;;;13.99;100.00
3206;BME280;1615;53.602;11.418;2024-03-02T10:22:04;100227.66;;;14.23;100.00
3206;BME280;1615;53.602;11.418;2024-03-02T10:24:41;100224.63;;;14.45;100.00
3206;BME280;1615;53.602;11.418;2024-03-02T10:27:17;99955.88;;;12.89;100.00
3206;BME280;1615;53.602;11.418;2024-03-02T10:29:42;100210.03;;;14.44;100.00
3206;BME280;1615;53.602;11.418;2024-03-02T10:32:11;99963.56;;;12.75;100.00
3206;BME280;1615;53.602;11.418;2024-03-02T10:34:37;100218.53;;;14.31;100.00
3206;BME280;1615;53.602;11.418;2024-03-02T10:37:03;100015.75;;;13.09;100.00
3206;BME280;1615;53.602;11.418;2024-03-02T10:39:28;100231.31;;;14.35;100.00
3206;BME280;1615;53.602;11.418;2024-03-02T10:41:55;100219.09;;;14.45;100.00
3206;BME280;1615;53.602;11.418;2024-03-02T10:44:22;100230.22;;;14.65;100.00
3206;BME280;1615;53.602;11.418;2024-03-02T10:46:49;100224.84;;;14.69;100.00
3206;BME280;1615;53.602;11.418;2024-03-02T10:49:15;100214.94;;;14.68;100.00
3206;BME280;1615;53.602;11.418;2024-03-02T10:51:42;100190.00;;;14.27;100.00
3206;BME280;1615;53.602;11.418;2024-03-02T10:54:07;100244.16;;;14.69;100.00
3206;BME280;1615;53.602;11.418;2024-03-02T10:56:38;100078.38;;;13.66;100.00
3206;BME280;1615;53.602;11.418;2024-03-02T11:01:48;100243.56;;;14.84;100.00
3206;BME280;1615;53.602;11.418;2024-03-02T11:04:16;100273.63;;;15.06;100.00
3206;BME280;1615;53.602;11.418;2024-03-02T11:06:49;100236.97;;;14.76;100.00
3206;BME280;1615;53.602;11.418;2024-03-02T11:09:17;100269.41;;;14.79;100.00
3206;BME280;1615;53.602;11.418;2024-03-02T11:11:43;100231.59;;;14.51;100.00
3206;BME280;1615;53.602;11.418;2024-03-02T11:14:16;100311.78;;;14.75;100.00
3206;BME280;1615;53.602;11.418;2024-03-02T11:16:42;100219.78;;;14.71;100.00
3206;BME280;1615;53.602;11.418;2024-03-02T11:19:15;100214.06;;;14.76;100.00
3206;BME280;1615;53.602;11.418;2024-03-02T11:21:42;100232.72;;;14.79;100.00
3206;BME280;1615;53.602;11.418;2024-03-02T11:26:52;100237.56;;;15.11;99.79
3206;BME280;1615;53.602;11.418;2024-03-02T11:32:02;100236.13;;;15.05;98.91
3206;BME280;1615;53.602;11.418;2024-03-02T11:34:35;100239.59;;;14.73;100.00
3206;BME280;1615;53.602;11.418;2024-03-02T11:37:01;99973.63;;;13.17;100.00
3206;BME280;1615;53.602;11.418;2024-03-02T11:39:27;100228.72;;;14.97;100.00
3206;BME280;1615;53.602;11.418;2024-03-02T11:41:54;99936.56;;;13.14;100.00
3206;BME280;1615;53.602;11.418;2024-03-02T11:44:20;100218.34;;;14.94;98.98
3206;BME280;1615;53.602;11.418;2024-03-02T11:46:52;100023.84;;;13.51;96.62
3206;BME280;1615;53.602;11.418;2024-03-02T11:49:45;100159.56;;;14.73;94.21
3206;BME280;1615;53.602;11.418;2024-03-02T11:52:13;100146.66;;;14.36;92.57
3206;BME280;1615;53.602;11.418;2024-03-02T11:54:41;100200.91;;;15.02;92.69
3206;BME280;1615;53.602;11.418;2024-03-02T11:57:12;99905.22;;;13.36;91.28
3206;BME280;1615;53.602;11.418;2024-03-02T11:59:38;100110.16;;;14.80;92.27
3206;BME280;1615;53.602;11.418;2024-03-02T12:02:05;100184.59;;;15.09;88.78
3206;BME280;1615;53.602;11.418;2024-03-02T12:04:30;100148.25;;;14.66;89.50
3206;BME280;1615;53.602;11.418;2024-03-02T12:07:01;100172.34;;;14.98;88.94
3206;BME280;1615;53.602;11.418;2024-03-02T12:09:30;99938.28;;;13.56;86.85
3206;BME280;1615;53.602;11.418;2024-03-02T12:12:06;100183.19;;;15.03;85.74
3206;BME280;1615;53.602;11.418;2024-03-02T12:14:32;100177.25;;;15.13;86.10
3206;BME280;1615;53.602;11.418;2024-03-02T12:16:58;100172.22;;;15.15;87.54
3206;BME280;1615;53.602;11.418;2024-03-02T12:19:25;100182.59;;;15.18;87.81
3206;BME280;1615;53.602;11.418;2024-03-02T12:21:51;99983.75;;;13.71;85.32
3206;BME280;1615;53.602;11.418;2024-03-02T12:24:17;100154.19;;;14.97;86.05
3206;BME280;1615;53.602;11.418;2024-03-02T12:26:43;100151.28;;;14.73;85.76
3206;BME280;1615;53.602;11.418;2024-03-02T12:29:08;100170.66;;;15.05;87.12
3206;BME280;1615;53.602;11.418;2024-03-02T12:31:34;100181.50;;;15.31;88.19
3206;BME280;1615;53.602;11.418;2024-03-02T12:34:00;100108.59;;;14.91;87.71
3206;BME280;1615;53.602;11.418;2024-03-02T12:36:26;100173.34;;;15.55;85.17
3206;BME280;1615;53.602;11.418;2024-03-02T12:38:55;100171.78;;;15.78;84.37
3206;BME280;1615;53.602;11.418;2024-03-02T12:41:20;100152.69;;;15.85;79.99
3206;BME280;1615;53.602;11.418;2024-03-02T12:43:46;100107.53;;;15.69;76.54
3206;BME280;1615;53.602;11.418;2024-03-02T12:46:12;100119.31;;;16.02;74.83
3206;BME280;1615;53.602;11.418;2024-03-02T12:48:37;100168.41;;;16.29;73.51
3206;BME280;1615;53.602;11.418;2024-03-02T12:51:06;100115.81;;;16.05;74.30
3206;BME280;1615;53.602;11.418;2024-03-02T12:53:31;100130.81;;;15.92;72.97
3206;BME280;1615;53.602;11.418;2024-03-02T12:55:57;100160.31;;;16.00;73.12
3206;BME280;1615;53.602;11.418;2024-03-02T12:58:22;99932.16;;;14.74;73.77
3206;BME280;1615;53.602;11.418;2024-03-02T13:00:48;100158.94;;;16.30;73.26
3206;BME280;1615;53.602;11.418;2024-03-02T13:03:14;100157.78;;;16.19;72.42